createdAt,value
2022-08-28T00:04:37.295Z,21.14
2022-08-28T00:09:38.689Z,21.12
2022-08-28T00:14:40.414Z,21.19
2022-08-28T00:19:41.770Z,21.19
2022-08-28T00:24:44.520Z,21.21
2022-08-28T00:29:45.894Z,21.27
2022-08-28T00:34:47.194Z,21.33
2022-08-28T00:39:49.259Z,21.35
2022-08-28T00:44:50.657Z,21.33
2022-08-28T00:49:54.625Z,21.33
2022-08-28T00:55:03.586Z,21.25
2022-08-28T01:00:17.166Z,21.21
2022-08-28T01:05:19.153Z,21.23
2022-08-28T01:10:23.646Z,21.14
2022-08-28T01:15:29.611Z,21.09
2022-08-28T01:20:33.433Z,21.12
2022-08-28T01:25:37.075Z,21.08
2022-08-28T01:30:42.387Z,21.07
2022-08-28T01:35:47.503Z,21.01
2022-08-28T01:40:53.639Z,21.01
2022-08-28T01:46:04.353Z,20.92
2022-08-28T01:51:05.985Z,20.94
2022-08-28T01:56:12.466Z,20.99
2022-08-28T02:01:17.132Z,20.89
2022-08-28T02:06:19.249Z,20.87
2022-08-28T02:11:23.798Z,20.72
2022-08-28T02:16:25.922Z,20.77
2022-08-28T02:21:27.281Z,20.79
2022-08-28T02:26:29.500Z,20.82
2022-08-28T02:31:31.055Z,20.76
2022-08-28T02:36:33.675Z,20.73
2022-08-28T02:41:35.105Z,20.59
2022-08-28T02:46:36.641Z,20.53
2022-08-28T02:51:38.099Z,20.63
2022-08-28T02:56:39.446Z,20.63
2022-08-28T03:01:40.842Z,20.61
2022-08-28T03:06:42.398Z,20.68
2022-08-28T03:11:43.725Z,20.42
2022-08-28T03:16:45.122Z,20.51
2022-08-28T03:21:46.465Z,20.59
2022-08-28T03:26:48.231Z,20.61
2022-08-28T03:31:49.592Z,20.49
2022-08-28T03:36:50.973Z,20.54
2022-08-28T03:41:52.286Z,20.47
2022-08-28T03:46:53.609Z,20.46
2022-08-28T03:51:54.923Z,20.32
2022-08-28T03:56:56.234Z,20.30
2022-08-28T04:01:57.562Z,20.36
2022-08-28T04:06:58.866Z,20.45
2022-08-28T04:12:00.471Z,20.45
2022-08-28T04:17:02.007Z,20.49
2022-08-28T04:22:03.717Z,20.48
2022-08-28T04:27:05.953Z,20.43
2022-08-28T04:32:07.430Z,20.37
2022-08-28T04:37:08.841Z,20.42
2022-08-28T04:42:10.290Z,20.37
2022-08-28T04:47:11.609Z,20.40
2022-08-28T04:52:13.335Z,20.27
2022-08-28T04:57:14.633Z,20.34
2022-08-28T05:02:16.126Z,20.29
2022-08-28T05:07:17.523Z,20.29
2022-08-28T05:12:19.624Z,20.33
2022-08-28T05:17:20.948Z,20.33
2022-08-28T05:22:23.080Z,20.34
2022-08-28T05:27:24.443Z,20.38
2022-08-28T05:32:25.741Z,20.37
2022-08-28T05:37:27.643Z,20.31
2022-08-28T05:42:31.356Z,20.31
2022-08-28T05:47:33.781Z,20.18
2022-08-28T05:52:35.745Z,20.22
2022-08-28T05:57:37.234Z,20.24
2022-08-28T06:02:40.055Z,20.21
2022-08-28T06:07:41.705Z,20.32
2022-08-28T06:12:43.013Z,20.56
2022-08-28T06:17:44.305Z,20.74
2022-08-28T06:22:45.621Z,20.83
2022-08-28T06:27:46.948Z,20.82
2022-08-28T06:32:48.460Z,21.08
2022-08-28T06:37:49.943Z,21.12
2022-08-28T06:42:51.604Z,21.04
2022-08-28T06:47:52.989Z,20.92
2022-08-28T06:52:54.840Z,21.05
2022-08-28T06:57:56.206Z,21.11
2022-08-28T07:02:58.344Z,21.09
2022-08-28T07:08:00.618Z,21.02
2022-08-28T07:13:03.474Z,21.15
2022-08-28T07:18:04.830Z,21.23
2022-08-28T07:23:06.191Z,21.36
2022-08-28T07:28:08.517Z,21.51
2022-08-28T07:33:09.986Z,21.59
2022-08-28T07:38:11.489Z,21.49
2022-08-28T07:43:31.570Z,21.60
2022-08-28T07:48:37.028Z,21.67
2022-08-28T07:53:38.392Z,21.76
2022-08-28T07:58:40.318Z,21.94
2022-08-28T08:03:41.976Z,22.58
2022-08-28T08:08:45.193Z,23.19
2022-08-28T08:13:47.633Z,23.08
2022-08-28T08:18:53.127Z,22.93
2022-08-28T08:23:56.061Z,23.09
2022-08-28T08:28:58.026Z,23.50
2022-08-28T08:34:02.439Z,23.84
2022-08-28T08:39:06.789Z,24.15
2022-08-28T08:44:33.499Z,24.40
2022-08-28T08:49:39.533Z,24.72
2022-08-28T08:54:51.659Z,24.94
2022-08-28T08:59:53.119Z,25.23
2022-08-28T09:05:03.083Z,25.25
2022-08-28T09:10:07.421Z,25.77
2022-08-28T09:15:26.363Z,25.71
2022-08-28T09:20:32.784Z,25.98
2022-08-28T09:25:44.153Z,26.28
2022-08-28T09:30:57.481Z,26.79
2022-08-28T09:36:29.541Z,27.04
2022-08-28T09:41:50.180Z,27.52
2022-08-28T09:46:52.267Z,27.15
2022-08-28T09:51:54.425Z,27.30
2022-08-28T09:56:56.093Z,27.56
2022-08-28T10:02:24.378Z,28.52
2022-08-28T10:07:34.894Z,29.59
2022-08-28T10:12:51.546Z,29.68
2022-08-28T10:18:25.997Z,29.52
2022-08-28T10:23:34.649Z,30.53
2022-08-28T10:28:57.675Z,33.15
2022-08-28T10:34:15.065Z,33.65
2022-08-28T10:39:45.566Z,33.29
2022-08-28T10:45:04.564Z,33.16
2022-08-28T10:50:18.408Z,36.10
2022-08-28T10:55:27.951Z,39.06
2022-08-28T11:00:30.161Z,38.42
2022-08-28T11:05:38.165Z,39.90
2022-08-28T11:10:48.353Z,41.99
2022-08-28T11:15:53.232Z,40.68
2022-08-28T11:21:09.839Z,42.54
2022-08-28T11:26:14.459Z,43.92
2022-08-28T11:31:16.356Z,44.55
2022-08-28T11:36:30.161Z,42.88
2022-08-28T11:41:56.115Z,44.38
2022-08-28T11:47:36.423Z,44.24
2022-08-28T11:53:15.777Z,44.97
2022-08-28T11:58:49.862Z,43.77
2022-08-28T12:04:15.936Z,45.90
2022-08-28T12:09:26.434Z,43.32
2022-08-28T12:14:28.185Z,44.48
2022-08-28T12:19:56.087Z,43.11
2022-08-28T12:25:02.186Z,40.28
2022-08-28T12:30:03.912Z,38.38
2022-08-28T12:35:17.029Z,36.98
2022-08-28T12:40:50.237Z,36.44
2022-08-28T12:46:18.910Z,36.09
2022-08-28T12:51:27.481Z,35.59
2022-08-28T12:56:34.017Z,35.18
2022-08-28T13:01:35.557Z,34.61
2022-08-28T13:06:39.090Z,34.18
2022-08-28T13:11:47.051Z,33.84
2022-08-28T13:16:48.588Z,33.52
2022-08-28T13:22:00.323Z,33.40
2022-08-28T13:27:16.701Z,32.98
2022-08-28T13:32:18.707Z,32.56
2022-08-28T13:37:52.187Z,31.91
2022-08-28T13:43:00.820Z,32.03
2022-08-28T13:48:02.527Z,31.35
2022-08-28T13:53:04.238Z,31.35
2022-08-28T13:58:05.606Z,31.03
2022-08-28T14:03:25.539Z,30.83
2022-08-28T14:08:27.153Z,30.68
2022-08-28T14:13:28.478Z,30.32
2022-08-28T14:18:29.767Z,30.36
2022-08-28T14:23:31.082Z,30.14
2022-08-28T14:28:32.461Z,29.99
2022-08-28T14:33:36.801Z,29.93
2022-08-28T14:38:38.430Z,29.78
2022-08-28T14:43:39.841Z,29.38
2022-08-28T14:48:41.198Z,29.01
2022-08-28T14:53:43.552Z,28.82
2022-08-28T14:58:45.397Z,28.51
2022-08-28T15:03:46.938Z,28.33
2022-08-28T15:08:49.490Z,28.17
2022-08-28T15:13:52.301Z,28.28
2022-08-28T15:18:55.349Z,28.12
2022-08-28T15:23:57.704Z,27.98
2022-08-28T15:29:02.226Z,27.92
2022-08-28T15:34:06.391Z,27.88
2022-08-28T15:39:34.037Z,27.75
2022-08-28T15:44:35.507Z,27.61
2022-08-28T15:49:46.685Z,27.24
2022-08-28T15:54:51.001Z,27.20
2022-08-28T15:59:52.347Z,27.12
2022-08-28T16:04:54.164Z,27.09
2022-08-28T16:09:55.561Z,27.03
2022-08-28T16:14:57.186Z,26.90
2022-08-28T16:19:58.516Z,26.85
2022-08-28T16:24:59.816Z,26.73
2022-08-28T16:30:01.112Z,26.62
2022-08-28T16:35:03.789Z,26.59
2022-08-28T16:40:09.556Z,26.56
2022-08-28T16:45:11.337Z,26.43
2022-08-28T16:50:14.145Z,26.33
2022-08-28T16:55:15.622Z,26.22
2022-08-28T17:00:17.387Z,26.13
2022-08-28T17:05:19.683Z,26.01
2022-08-28T17:10:23.125Z,25.98
2022-08-28T17:15:24.721Z,25.88
2022-08-28T17:20:44.750Z,25.76
2022-08-28T17:25:46.114Z,25.70
2022-08-28T17:30:47.425Z,25.59
2022-08-28T17:35:50.353Z,25.55
2022-08-28T17:40:53.545Z,25.45
2022-08-28T17:45:54.875Z,25.32
2022-08-28T17:50:58.164Z,25.20
2022-08-28T17:56:02.653Z,25.09
2022-08-28T18:01:04.769Z,25.02
2022-08-28T18:06:06.689Z,24.91
2022-08-28T18:11:08.413Z,24.84
2022-08-28T18:16:10.218Z,24.66
2022-08-28T18:21:13.145Z,24.57
2022-08-28T18:26:15.258Z,24.45
2022-08-28T18:31:17.352Z,24.28
2022-08-28T18:36:18.815Z,24.16
2022-08-28T18:41:20.725Z,24.06
2022-08-28T18:46:22.394Z,24.00
2022-08-28T18:51:24.021Z,23.93
2022-08-28T18:56:25.389Z,23.91
2022-08-28T19:01:31.805Z,23.84
2022-08-28T19:06:34.769Z,23.73
2022-08-28T19:11:36.775Z,23.66
2022-08-28T19:16:38.981Z,23.63
2022-08-28T19:21:40.645Z,23.44
2022-08-28T19:26:41.977Z,23.39
2022-08-28T19:31:46.208Z,23.36
2022-08-28T19:36:47.589Z,23.19
2022-08-28T19:41:48.934Z,23.06
2022-08-28T19:46:50.304Z,23.03
2022-08-28T19:51:51.603Z,22.90
2022-08-28T19:56:52.904Z,22.92
2022-08-28T20:01:54.333Z,22.82
2022-08-28T20:06:55.856Z,22.78
2022-08-28T20:11:57.236Z,22.67
2022-08-28T20:16:58.645Z,22.63
2022-08-28T20:21:59.945Z,22.54
2022-08-28T20:27:01.280Z,22.46
2022-08-28T20:32:03.019Z,22.41
2022-08-28T20:37:04.875Z,22.04
2022-08-28T20:42:06.525Z,22.04
2022-08-28T20:47:07.954Z,22.11
2022-08-28T20:52:10.840Z,22.03
2022-08-28T20:57:15.593Z,21.98
2022-08-28T21:02:19.597Z,21.98
2022-08-28T21:07:24.025Z,22.04
2022-08-28T21:12:26.222Z,21.89
2022-08-28T21:17:30.106Z,21.92
2022-08-28T21:22:33.058Z,21.94
2022-08-28T21:27:37.534Z,21.85
2022-08-28T21:32:39.232Z,21.81
2022-08-28T21:37:41.829Z,21.80
2022-08-28T21:42:43.779Z,21.78
2022-08-28T21:47:45.165Z,21.62
2022-08-28T21:52:46.701Z,21.62
2022-08-28T21:57:48.682Z,21.52
2022-08-28T22:02:50.276Z,21.43
2022-08-28T22:07:51.878Z,21.39
2022-08-28T22:12:53.217Z,21.34
2022-08-28T22:17:54.733Z,21.25
2022-08-28T22:23:11.006Z,21.07
2022-08-28T22:28:12.697Z,21.01
2022-08-28T22:33:14.602Z,20.82
2022-08-28T22:38:16.308Z,20.79
2022-08-28T22:43:18.521Z,20.67
2022-08-28T22:48:19.959Z,20.65
2022-08-28T22:53:21.332Z,20.60
2022-08-28T22:58:22.653Z,20.53
2022-08-28T23:03:24.449Z,20.56
2022-08-28T23:08:27.846Z,20.55
2022-08-28T23:13:31.348Z,20.51
2022-08-28T23:18:51.938Z,20.46
2022-08-28T23:23:55.002Z,20.42
2022-08-28T23:28:56.376Z,20.33
2022-08-28T23:33:57.735Z,20.25
2022-08-28T23:39:00.096Z,20.24
2022-08-28T23:44:05.286Z,20.10
2022-08-28T23:49:11.999Z,20.15
2022-08-28T23:54:14.081Z,20.11
2022-08-28T23:59:16.781Z,20.04
